Time,TemperatureF,DewpointF,PressureIn,WindDirection,WindDirectionDegrees,WindSpeedMPH,WindSpeedGustMPH,Humidity,HourlyPrecipIn,Conditions,Clouds,dailyrainin,SoftwareType,DateUTC
2013-08-15 00:12:00,82.2,77.0,30.07,SSE,147,2.0,7.0,85,0.00,,,0.00,weatherlink.com 1.10,2013-08-15 04:12:00,
2013-08-15 00:27:00,82.0,77.0,30.07,SSE,148,3.0,6.0,84,0.00,,,0.00,weatherlink.com 1.10,2013-08-15 04:27:00,
2013-08-15 00:42:00,82.2,76.0,30.07,SE,130,1.0,8.0,82,0.00,,,0.00,weatherlink.com 1.10,2013-08-15 04:42:00,
2013-08-15 00:57:00,82.1,75.0,30.07,ESE,113,5.0,5.0,80,0.00,,,0.00,weatherlink.com 1.10,2013-08-15 04:57:00,
2013-08-15 01:13:00,82.3,74.0,30.07,ESE,108,2.0,5.0,77,0.00,,,0.00,weatherlink.com 1.10,2013-08-15 05:13:00,
2013-08-15 01:27:00,82.5,75.0,30.06,SE,139,2.0,5.0,78,0.00,,,0.00,weatherlink.com 1.10,2013-08-15 05:27:00,
2013-08-15 01:42:00,82.5,75.0,30.06,SE,138,2.0,4.0,79,0.00,,,0.00,weatherlink.com 1.10,2013-08-15 05:42:00,
2013-08-15 01:58:00,82.7,76.0,30.06,SE,134,1.0,5.0,80,0.00,,,0.00,weatherlink.com 1.10,2013-08-15 05:58:00,
2013-08-15 02:13:00,82.7,77.0,30.05,SE,134,3.0,7.0,82,0.00,,,0.00,weatherlink.com 1.10,2013-08-15 06:13:00,
2013-08-15 02:28:00,82.6,77.0,30.05,SE,141,4.0,8.0,82,0.00,,,0.00,weatherlink.com 1.10,2013-08-15 06:28:00,
2013-08-15 02:43:00,82.5,77.0,30.04,SSE,163,3.0,8.0,82,0.00,,,0.00,weatherlink.com 1.10,2013-08-15 06:43:00,
2013-08-15 02:58:00,82.3,76.0,30.04,SE,139,2.0,5.0,82,0.00,,,0.00,weatherlink.com 1.10,2013-08-15 06:58:00,
2013-08-15 03:13:00,82.2,77.0,30.04,SE,141,3.0,7.0,83,0.00,,,0.00,weatherlink.com 1.10,2013-08-15 07:13:00,
2013-08-15 03:28:00,82.0,76.0,30.03,South,170,1.0,5.0,83,0.00,,,0.00,weatherlink.com 1.10,2013-08-15 07:28:00,
2013-08-15 03:43:00,80.7,75.0,30.03,SE,128,11.0,20.0,83,0.00,,,0.00,weatherlink.com 1.10,2013-08-15 07:43:00,
2013-08-15 03:58:00,79.6,74.0,30.02,ESE,115,4.0,10.0,82,0.00,,,0.00,weatherlink.com 1.10,2013-08-15 07:58:00,
2013-08-15 04:13:00,79.5,74.0,30.03,SE,134,6.0,10.0,83,0.00,,,0.00,weatherlink.com 1.10,2013-08-15 08:13:00,
2013-08-15 04:28:00,78.8,74.0,30.03,SE,136,6.0,12.0,84,0.00,,,0.00,weatherlink.com 1.10,2013-08-15 08:28:00,
2013-08-15 04:43:00,79.4,74.0,30.05,SSE,156,4.0,10.0,83,0.00,,,0.00,weatherlink.com 1.10,2013-08-15 08:43:00,
2013-08-15 04:58:00,78.8,73.0,30.04,SSE,153,8.0,14.0,81,0.00,,,0.00,weatherlink.com 1.10,2013-08-15 08:58:00,
2013-08-15 05:13:00,78.0,73.0,30.03,ESE,108,5.0,10.0,84,0.00,,,0.00,weatherlink.com 1.10,2013-08-15 09:13:00,
2013-08-15 05:28:00,77.7,74.0,30.04,SSE,153,6.0,12.0,89,0.00,,,0.00,weatherlink.com 1.10,2013-08-15 09:28:00,
2013-08-15 05:43:00,77.4,74.0,30.04,SE,135,4.0,8.0,90,0.00,,,0.00,weatherlink.com 1.10,2013-08-15 09:43:00,
2013-08-15 05:58:00,76.8,73.0,30.04,South,190,3.0,8.0,89,0.00,,,0.00,weatherlink.com 1.10,2013-08-15 09:58:00,
2013-08-15 06:13:00,76.7,73.0,30.04,SE,142,1.0,6.0,89,0.00,,,0.00,weatherlink.com 1.10,2013-08-15 10:13:00,
2013-08-15 06:28:00,76.7,73.0,30.04,SE,142,2.0,4.0,89,0.00,,,0.00,weatherlink.com 1.10,2013-08-15 10:28:00,
2013-08-15 06:43:00,76.9,74.0,30.05,SW,219,0.0,5.0,89,0.00,,,0.00,weatherlink.com 1.10,2013-08-15 10:43:00,
2013-08-15 06:58:00,77.0,74.0,30.05,ESE,114,0.0,3.0,89,0.00,,,0.00,weatherlink.com 1.10,2013-08-15 10:58:00,
2013-08-15 07:13:00,77.2,74.0,30.06,SSE,158,0.0,2.0,89,0.00,,,0.00,weatherlink.com 1.10,2013-08-15 11:13:00,
2013-08-15 07:28:00,78.2,74.0,30.05,ESE,122,4.0,7.0,88,0.00,,,0.00,weatherlink.com 1.10,2013-08-15 11:28:00,
2013-08-15 07:43:00,78.5,75.0,30.05,SSE,148,2.0,10.0,90,0.00,,,0.00,weatherlink.com 1.10,2013-08-15 11:43:00,
2013-08-15 07:58:00,78.3,75.0,30.06,SSE,148,2.0,7.0,90,0.00,,,0.00,weatherlink.com 1.10,2013-08-15 11:58:00,
2013-08-15 08:13:00,78.3,75.0,30.06,SSW,199,2.0,6.0,90,0.00,,,0.00,weatherlink.com 1.10,2013-08-15 12:13:00,
2013-08-15 08:28:00,78.5,75.0,30.06,SSE,148,4.0,6.0,90,0.00,,,0.00,weatherlink.com 1.10,2013-08-15 12:28:00,
2013-08-15 08:43:00,79.2,76.0,30.06,South,172,1.0,6.0,89,0.00,,,0.00,weatherlink.com 1.10,2013-08-15 12:43:00,
2013-08-15 08:58:00,79.9,77.0,30.06,ESE,123,3.0,8.0,89,0.00,,,0.00,weatherlink.com 1.10,2013-08-15 12:58:00,
2013-08-15 09:13:00,80.1,75.0,30.06,SSE,162,5.0,10.0,85,0.00,,,0.00,weatherlink.com 1.10,2013-08-15 13:13:00,
2013-08-15 09:28:00,80.2,75.0,30.06,SSE,155,5.0,11.0,85,0.00,,,0.00,weatherlink.com 1.10,2013-08-15 13:28:00,
2013-08-15 09:43:00,80.5,75.0,30.06,East,100,4.0,9.0,84,0.00,,,0.00,weatherlink.com 1.10,2013-08-15 13:43:00,
2013-08-15 09:58:00,80.6,75.0,30.07,ESE,110,5.0,11.0,84,0.00,,,0.00,weatherlink.com 1.10,2013-08-15 13:58:00,
2013-08-15 10:13:00,80.8,76.0,30.07,SE,141,6.0,10.0,85,0.00,,,0.00,weatherlink.com 1.10,2013-08-15 14:13:00,
2013-08-15 10:28:00,81.1,76.0,30.07,SSE,148,8.0,9.0,85,0.00,,,0.00,weatherlink.com 1.10,2013-08-15 14:28:00,
2013-08-15 10:43:00,81.8,77.0,30.07,ENE,78,6.0,6.0,84,0.00,,,0.00,weatherlink.com 1.10,2013-08-15 14:43:00,
2013-08-15 10:58:00,82.4,77.0,30.08,ESE,116,4.0,6.0,83,0.00,,,0.00,weatherlink.com 1.10,2013-08-15 14:58:00,
2013-08-15 11:13:00,82.4,76.0,30.08,SE,133,2.0,8.0,82,0.00,,,0.00,weatherlink.com 1.10,2013-08-15 15:13:00,
2013-08-15 11:28:00,83.6,77.0,30.08,SSE,160,1.0,8.0,79,0.00,,,0.00,weatherlink.com 1.10,2013-08-15 15:28:00,
2013-08-15 11:43:00,84.4,78.0,30.08,SE,139,4.0,7.0,80,0.00,,,0.00,weatherlink.com 1.10,2013-08-15 15:43:00,
2013-08-15 11:58:00,84.4,77.0,30.08,SE,145,8.0,9.0,78,0.00,,,0.00,weatherlink.com 1.10,2013-08-15 15:58:00,
2013-08-15 12:14:00,84.6,77.0,30.08,East,96,10.0,12.0,79,0.00,,,0.00,weatherlink.com 1.10,2013-08-15 16:14:00,
2013-08-15 12:28:00,84.3,77.0,30.08,ESE,106,5.0,10.0,78,0.00,,,0.00,weatherlink.com 1.10,2013-08-15 16:28:00,
2013-08-15 12:44:00,84.7,78.0,30.08,ESE,113,5.0,9.0,79,0.00,,,0.00,weatherlink.com 1.10,2013-08-15 16:44:00,
2013-08-15 12:58:00,84.6,77.0,30.08,ESE,106,8.0,11.0,79,0.00,,,0.00,weatherlink.com 1.10,2013-08-15 16:58:00,
2013-08-15 13:14:00,84.5,78.0,30.07,SE,142,7.0,12.0,80,0.00,,,0.00,weatherlink.com 1.10,2013-08-15 17:14:00,
2013-08-15 13:29:00,84.7,77.0,30.07,ESE,107,11.0,13.0,77,0.00,,,0.00,weatherlink.com 1.10,2013-08-15 17:29:00,
2013-08-15 13:44:00,85.9,77.0,30.06,SSE,151,4.0,10.0,75,0.00,,,0.00,weatherlink.com 1.10,2013-08-15 17:44:00,
2013-08-15 13:59:00,85.6,77.0,30.05,SSE,161,8.0,10.0,76,0.00,,,0.00,weatherlink.com 1.10,2013-08-15 17:59:00,
2013-08-15 14:15:00,84.8,77.0,30.05,ESE,109,10.0,12.0,77,0.00,,,0.00,weatherlink.com 1.10,2013-08-15 18:15:00,
2013-08-15 14:29:00,84.7,76.0,30.05,East,99,7.0,11.0,76,0.00,,,0.00,weatherlink.com 1.10,2013-08-15 18:29:00,
2013-08-15 14:44:00,84.7,77.0,30.04,SSE,153,5.0,11.0,77,0.00,,,0.00,weatherlink.com 1.10,2013-08-15 18:44:00,
2013-08-15 14:59:00,85.1,77.0,30.04,ESE,119,14.0,14.0,76,0.00,,,0.00,weatherlink.com 1.10,2013-08-15 18:59:00,
2013-08-15 15:14:00,85.3,77.0,30.04,ESE,106,5.0,10.0,76,0.00,,,0.00,weatherlink.com 1.10,2013-08-15 19:14:00,
2013-08-15 15:29:00,85.6,77.0,30.03,SE,134,4.0,12.0,76,0.00,,,0.00,weatherlink.com 1.10,2013-08-15 19:29:00,
2013-08-15 15:44:00,86.0,76.0,30.02,ESE,117,5.0,11.0,73,0.00,,,0.00,weatherlink.com 1.10,2013-08-15 19:44:00,
2013-08-15 16:14:00,85.2,75.0,30.02,ESE,116,7.0,15.0,71,0.00,,,0.00,weatherlink.com 1.10,2013-08-15 20:14:00,
2013-08-15 16:29:00,85.4,76.0,30.02,ESE,113,5.0,11.0,73,0.00,,,0.00,weatherlink.com 1.10,2013-08-15 20:29:00,
2013-08-15 16:44:00,85.1,76.0,30.02,SE,127,4.0,11.0,73,0.00,,,0.00,weatherlink.com 1.10,2013-08-15 20:44:00,
2013-08-15 17:14:00,84.5,75.0,30.03,SSE,162,3.0,10.0,72,0.00,,,0.00,weatherlink.com 1.10,2013-08-15 21:14:00,
2013-08-15 17:29:00,84.0,75.0,30.02,ESE,117,5.0,9.0,74,0.00,,,0.00,weatherlink.com 1.10,2013-08-15 21:29:00,
2013-08-15 17:44:00,83.8,76.0,30.02,SSE,155,7.0,9.0,76,0.00,,,0.00,weatherlink.com 1.10,2013-08-15 21:44:00,
2013-08-15 17:59:00,83.3,76.0,30.02,SE,127,4.0,12.0,78,0.00,,,0.00,weatherlink.com 1.10,2013-08-15 21:59:00,
2013-08-15 18:14:00,83.1,76.0,30.02,SE,136,5.0,8.0,79,0.00,,,0.00,weatherlink.com 1.10,2013-08-15 22:14:00,
2013-08-15 18:29:00,83.1,76.0,30.02,SSE,160,8.0,9.0,79,0.00,,,0.00,weatherlink.com 1.10,2013-08-15 22:29:00,
2013-08-15 18:44:00,83.0,76.0,30.02,ESE,116,4.0,10.0,80,0.00,,,0.00,weatherlink.com 1.10,2013-08-15 22:44:00,
2013-08-15 18:59:00,83.0,76.0,30.03,SSE,162,5.0,8.0,80,0.00,,,0.00,weatherlink.com 1.10,2013-08-15 22:59:00,
2013-08-15 19:14:00,82.9,77.0,30.03,SE,146,4.0,12.0,82,0.00,,,0.00,weatherlink.com 1.10,2013-08-15 23:14:00,
2013-08-15 19:29:00,82.8,77.0,30.04,ESE,123,6.0,10.0,82,0.00,,,0.00,weatherlink.com 1.10,2013-08-15 23:29:00,
2013-08-15 19:44:00,82.8,77.0,30.04,SSE,153,5.0,9.0,83,0.00,,,0.00,weatherlink.com 1.10,2013-08-15 23:44:00,
2013-08-15 19:59:00,82.7,77.0,30.05,East,94,5.0,9.0,82,0.00,,,0.00,weatherlink.com 1.10,2013-08-15 23:59:00,
2013-08-15 20:14:00,82.5,77.0,30.05,SE,143,5.0,8.0,82,0.00,,,0.00,weatherlink.com 1.10,2013-08-16 00:14:00,
2013-08-15 20:29:00,82.5,76.0,30.06,South,172,2.0,8.0,80,0.00,,,0.00,weatherlink.com 1.10,2013-08-16 00:29:00,
2013-08-15 20:44:00,82.4,76.0,30.06,SSE,155,2.0,9.0,81,0.00,,,0.00,weatherlink.com 1.10,2013-08-16 00:44:00,
2013-08-15 21:00:00,82.3,76.0,30.07,SSE,152,4.0,7.0,80,0.00,,,0.00,weatherlink.com 1.10,2013-08-16 01:00:00,
2013-08-15 21:14:00,82.3,76.0,30.09,South,179,3.0,8.0,81,0.00,,,0.00,weatherlink.com 1.10,2013-08-16 01:14:00,
2013-08-15 21:44:00,82.1,77.0,30.10,SE,135,3.0,6.0,83,0.00,,,0.00,weatherlink.com 1.10,2013-08-16 01:44:00,
2013-08-15 21:59:00,81.9,77.0,30.10,SW,220,2.0,5.0,84,0.00,,,0.00,weatherlink.com 1.10,2013-08-16 01:59:00,
2013-08-15 22:14:00,81.5,77.0,30.11,SE,135,1.0,5.0,85,0.00,,,0.00,weatherlink.com 1.10,2013-08-16 02:14:00,
2013-08-15 22:29:00,81.6,76.0,30.11,WSW,238,1.0,4.0,84,0.00,,,0.00,weatherlink.com 1.10,2013-08-16 02:29:00,
2013-08-15 22:44:00,81.7,77.0,30.11,SW,223,3.0,7.0,85,0.00,,,0.00,weatherlink.com 1.10,2013-08-16 02:44:00,
2013-08-15 22:59:00,81.7,77.0,30.11,WSW,242,2.0,7.0,84,0.00,,,0.00,weatherlink.com 1.10,2013-08-16 02:59:00,
2013-08-15 23:14:00,81.7,77.0,30.11,SW,228,4.0,7.0,84,0.00,,,0.00,weatherlink.com 1.10,2013-08-16 03:14:00,
2013-08-15 23:29:00,81.7,77.0,30.11,South,187,3.0,5.0,84,0.00,,,0.00,weatherlink.com 1.10,2013-08-16 03:29:00,
2013-08-15 23:44:00,81.6,77.0,30.11,SW,227,2.0,5.0,85,0.00,,,0.00,weatherlink.com 1.10,2013-08-16 03:44:00,
2013-08-15 23:59:00,81.6,77.0,30.11,SW,226,1.0,3.0,85,0.00,,,0.00,weatherlink.com 1.10,2013-08-16 03:59:00,